createdAt,value
2022-10-19T00:02:30.677Z,8.21
2022-10-19T00:05:33.216Z,8.37
2022-10-19T00:08:35.696Z,8.52
2022-10-19T00:11:40.814Z,8.60
2022-10-19T00:14:43.159Z,8.64
2022-10-19T00:17:45.590Z,8.69
2022-10-19T00:20:47.895Z,8.72
2022-10-19T00:23:50.296Z,8.76
2022-10-19T00:26:52.692Z,8.93
2022-10-19T00:29:55.112Z,9.13
2022-10-19T00:32:57.470Z,9.15
2022-10-19T00:35:59.791Z,9.23
2022-10-19T00:39:04.643Z,9.14
2022-10-19T00:42:11.803Z,8.99
2022-10-19T00:45:17.726Z,8.90
2022-10-19T00:48:27.214Z,8.94
2022-10-19T00:51:31.520Z,8.93
2022-10-19T00:54:36.852Z,8.92
2022-10-19T00:57:39.737Z,8.96
2022-10-19T01:00:42.863Z,8.93
2022-10-19T01:03:45.683Z,8.95
2022-10-19T01:06:48.243Z,8.93
2022-10-19T01:09:51.094Z,9.02
2022-10-19T01:13:17.007Z,8.83
2022-10-19T01:17:01.528Z,8.85
2022-10-19T01:20:07.059Z,8.96
2022-10-19T01:23:36.926Z,9.01
2022-10-19T01:27:19.082Z,9.06
2022-10-19T01:30:58.482Z,9.11
2022-10-19T01:34:13.178Z,9.13
2022-10-19T01:37:38.803Z,9.12
2022-10-19T01:41:11.164Z,9.21
2022-10-19T01:44:27.051Z,9.21
2022-10-19T01:47:49.716Z,9.17
2022-10-19T01:51:02.679Z,9.24
2022-10-19T01:54:09.724Z,9.22
2022-10-19T01:57:17.390Z,9.24
2022-10-19T02:00:23.223Z,9.25
2022-10-19T02:03:26.724Z,9.34
2022-10-19T02:06:29.887Z,9.37
2022-10-19T02:09:32.391Z,9.52
2022-10-19T02:12:37.230Z,9.44
2022-10-19T02:15:43.344Z,9.46
2022-10-19T02:18:49.462Z,9.54
2022-10-19T02:21:52.415Z,9.57
2022-10-19T02:24:54.784Z,9.59
2022-10-19T02:27:57.342Z,9.63
2022-10-19T02:31:00.211Z,9.63
2022-10-19T02:34:02.735Z,9.67
2022-10-19T02:37:06.666Z,9.75
2022-10-19T02:40:10.797Z,9.87
2022-10-19T02:43:15.226Z,9.92
2022-10-19T02:46:25.639Z,9.95
2022-10-19T02:49:29.714Z,9.88
2022-10-19T02:52:32.133Z,9.88
2022-10-19T02:55:34.986Z,9.93
2022-10-19T02:58:37.339Z,9.92
2022-10-19T03:01:39.682Z,10.00
2022-10-19T03:04:44.194Z,9.79
2022-10-19T03:07:53.631Z,9.80
2022-10-19T03:10:59.270Z,9.89
2022-10-19T03:14:01.573Z,9.93
2022-10-19T03:17:04.242Z,9.97
2022-10-19T03:20:07.051Z,10.09
2022-10-19T03:23:09.411Z,10.25
2022-10-19T03:26:14.718Z,10.24
2022-10-19T03:29:17.337Z,10.37
2022-10-19T03:32:19.816Z,10.23
2022-10-19T03:35:22.323Z,10.22
2022-10-19T03:38:25.030Z,10.34
2022-10-19T03:41:30.357Z,10.36
2022-10-19T03:44:32.704Z,10.41
2022-10-19T03:47:35.653Z,10.40
2022-10-19T03:50:43.468Z,10.57
2022-10-19T03:53:46.912Z,10.50
2022-10-19T03:56:49.175Z,10.52
2022-10-19T03:59:52.045Z,10.65
2022-10-19T04:02:54.354Z,10.58
2022-10-19T04:06:03.736Z,10.61
2022-10-19T04:09:08.063Z,10.50
2022-10-19T04:12:10.377Z,10.46
2022-10-19T04:15:12.741Z,10.40
2022-10-19T04:18:15.020Z,10.26
2022-10-19T04:21:35.872Z,10.18
2022-10-19T04:24:38.230Z,10.44
2022-10-19T04:27:40.561Z,10.45
2022-10-19T04:30:42.912Z,10.51
2022-10-19T04:36:49.062Z,10.76
2022-10-19T04:39:51.709Z,10.79
2022-10-19T04:42:54.129Z,10.81
2022-10-19T04:45:56.530Z,10.90
2022-10-19T04:48:59.465Z,10.95
2022-10-19T04:52:01.818Z,10.96
2022-10-19T04:55:04.502Z,10.85
2022-10-19T04:58:06.999Z,10.88
2022-10-19T05:01:18.093Z,10.81
2022-10-19T05:04:20.516Z,10.79
2022-10-19T05:07:22.964Z,10.81
2022-10-19T05:10:27.529Z,10.71
2022-10-19T05:13:32.847Z,10.50
2022-10-19T05:16:35.425Z,10.51
2022-10-19T05:19:37.818Z,10.80
2022-10-19T05:22:40.483Z,10.95
2022-10-19T05:25:42.919Z,10.89
2022-10-19T05:28:50.151Z,10.70
2022-10-19T05:31:52.586Z,10.75
2022-10-19T05:34:55.072Z,11.05
2022-10-19T05:37:57.523Z,10.40
2022-10-19T05:41:01.232Z,10.51
2022-10-19T05:44:05.287Z,10.45
2022-10-19T05:47:07.736Z,10.42
2022-10-19T05:50:10.364Z,10.45
2022-10-19T05:53:13.188Z,10.43
2022-10-19T05:56:19.907Z,10.35
2022-10-19T05:59:23.624Z,10.29
2022-10-19T06:02:26.199Z,10.36
2022-10-19T06:05:29.052Z,10.50
2022-10-19T06:08:31.925Z,10.71
2022-10-19T06:11:36.655Z,10.83
2022-10-19T06:14:39.244Z,10.86
2022-10-19T06:17:41.961Z,11.02
2022-10-19T06:20:48.411Z,11.28
2022-10-19T06:23:56.998Z,11.40
2022-10-19T06:26:59.468Z,11.49
2022-10-19T06:30:03.016Z,11.62
2022-10-19T06:33:06.283Z,11.57
2022-10-19T06:36:11.340Z,11.49
2022-10-19T06:39:13.844Z,11.46
2022-10-19T06:42:16.367Z,11.60
2022-10-19T06:45:18.892Z,11.86
2022-10-19T06:48:21.636Z,11.68
2022-10-19T06:51:26.014Z,11.54
2022-10-19T06:54:29.481Z,11.63
2022-10-19T06:57:32.326Z,11.92
2022-10-19T07:00:35.439Z,11.95
2022-10-19T07:03:38.444Z,12.03
2022-10-19T07:06:40.930Z,12.19
2022-10-19T07:09:43.476Z,12.37
2022-10-19T07:12:46.057Z,12.24
2022-10-19T07:15:48.872Z,12.70
2022-10-19T07:18:53.169Z,12.98
2022-10-19T07:21:55.546Z,12.63
2022-10-19T07:24:58.723Z,12.93
2022-10-19T07:28:01.343Z,12.64
2022-10-19T07:31:09.188Z,12.39
2022-10-19T07:34:14.754Z,12.58
2022-10-19T07:37:17.466Z,13.06
2022-10-19T07:40:21.911Z,13.06
2022-10-19T07:43:24.319Z,13.28
2022-10-19T07:46:38.667Z,13.74
2022-10-19T07:49:41.902Z,13.58
2022-10-19T07:52:44.385Z,13.84
2022-10-19T07:55:47.175Z,14.00
2022-10-19T07:58:50.967Z,13.87
2022-10-19T08:01:54.808Z,14.13
2022-10-19T08:05:01.790Z,14.40
2022-10-19T08:08:06.927Z,14.49
2022-10-19T08:11:14.320Z,14.25
2022-10-19T08:14:16.964Z,14.20
2022-10-19T08:17:19.494Z,14.41
2022-10-19T08:20:23.663Z,14.56
2022-10-19T08:23:27.483Z,14.62
2022-10-19T08:26:32.210Z,14.75
2022-10-19T08:29:34.721Z,14.89
2022-10-19T08:32:38.144Z,14.88
2022-10-19T08:35:40.742Z,14.83
2022-10-19T08:38:45.084Z,14.97
2022-10-19T08:42:19.551Z,15.18
2022-10-19T08:45:30.644Z,15.31
2022-10-19T08:48:38.082Z,15.59
2022-10-19T08:51:43.141Z,15.96
2022-10-19T08:55:04.658Z,16.51
2022-10-19T08:58:29.709Z,16.57
2022-10-19T09:01:39.626Z,16.80
2022-10-19T09:04:49.749Z,17.34
2022-10-19T09:07:53.978Z,17.50
2022-10-19T09:10:57.499Z,17.40
2022-10-19T09:14:13.933Z,17.75
2022-10-19T09:17:19.904Z,17.90
2022-10-19T09:20:29.523Z,17.47
2022-10-19T09:23:39.453Z,17.06
2022-10-19T09:26:52.251Z,16.97
2022-10-19T09:29:57.812Z,17.24
2022-10-19T09:33:02.141Z,17.26
2022-10-19T09:36:07.663Z,17.07
2022-10-19T09:39:13.391Z,17.08
2022-10-19T09:42:22.758Z,17.05
2022-10-19T09:45:46.770Z,17.07
2022-10-19T09:48:52.355Z,16.97
2022-10-19T09:51:55.358Z,16.89
2022-10-19T09:55:16.544Z,16.92
2022-10-19T09:58:20.476Z,16.98
2022-10-19T10:01:59.236Z,17.19
2022-10-19T10:05:07.600Z,17.30
2022-10-19T10:08:15.554Z,17.21
2022-10-19T10:11:37.742Z,17.53
2022-10-19T10:14:41.577Z,17.63
2022-10-19T10:17:47.615Z,17.95
2022-10-19T10:21:06.835Z,17.77
2022-10-19T10:24:12.899Z,17.61
2022-10-19T10:27:30.355Z,17.77
2022-10-19T10:30:37.412Z,17.73
2022-10-19T10:33:45.064Z,17.65
2022-10-19T10:36:53.867Z,17.74
2022-10-19T10:40:01.928Z,17.88
2022-10-19T10:43:13.837Z,17.80
2022-10-19T10:46:21.496Z,17.80
2022-10-19T10:49:28.787Z,17.94
2022-10-19T10:52:31.752Z,18.00
2022-10-19T10:55:34.970Z,17.76
2022-10-19T10:58:58.884Z,17.89
2022-10-19T11:02:18.291Z,17.87
2022-10-19T11:05:38.933Z,17.72
2022-10-19T11:09:01.403Z,17.60
2022-10-19T11:12:12.578Z,17.65
2022-10-19T11:15:47.572Z,17.79
2022-10-19T11:23:14.580Z,17.53
2022-10-19T11:26:23.857Z,17.52
2022-10-19T11:29:32.271Z,17.29
2022-10-19T11:32:46.080Z,17.12
2022-10-19T11:35:58.073Z,17.27
2022-10-19T11:39:09.468Z,17.23
2022-10-19T11:42:24.603Z,17.12
2022-10-19T11:45:48.307Z,17.16
2022-10-19T11:49:22.221Z,17.68
2022-10-19T11:52:34.576Z,17.72
2022-10-19T11:55:47.041Z,17.58
2022-10-19T11:59:15.240Z,17.67
2022-10-19T12:02:25.549Z,17.54
2022-10-19T12:05:49.531Z,17.65
2022-10-19T12:09:04.590Z,17.73
2022-10-19T12:12:39.787Z,17.50
2022-10-19T12:15:44.098Z,17.55
2022-10-19T12:18:50.572Z,17.48
2022-10-19T12:22:01.393Z,17.01
2022-10-19T12:25:05.400Z,17.02
2022-10-19T12:28:10.968Z,16.79
2022-10-19T12:31:18.403Z,17.12
2022-10-19T12:34:21.342Z,17.19
2022-10-19T12:37:32.948Z,17.45
2022-10-19T12:40:42.382Z,17.55
2022-10-19T12:43:57.737Z,17.77
2022-10-19T12:47:08.487Z,17.84
2022-10-19T12:50:10.967Z,17.98
2022-10-19T12:53:31.239Z,18.02
2022-10-19T12:56:47.849Z,18.22
2022-10-19T13:00:04.235Z,17.98
2022-10-19T13:03:25.131Z,17.81
2022-10-19T13:06:34.303Z,17.84
2022-10-19T13:09:44.303Z,17.73
2022-10-19T13:12:48.572Z,17.64
2022-10-19T13:15:52.157Z,17.51
2022-10-19T13:19:14.452Z,17.44
2022-10-19T13:22:25.684Z,17.16
2022-10-19T13:25:38.287Z,16.98
2022-10-19T13:28:53.020Z,16.78
2022-10-19T13:31:55.783Z,16.57
2022-10-19T13:35:28.980Z,16.53
2022-10-19T13:41:50.327Z,16.38
2022-10-19T13:44:53.681Z,16.39
2022-10-19T13:48:10.784Z,16.34
2022-10-19T13:51:52.424Z,16.22
2022-10-19T13:55:47.538Z,16.12
2022-10-19T13:59:44.210Z,15.76
2022-10-19T14:03:22.481Z,15.60
2022-10-19T14:06:33.003Z,15.59
2022-10-19T14:09:52.221Z,15.53
2022-10-19T14:12:55.400Z,15.54
2022-10-19T14:16:01.473Z,15.47
2022-10-19T14:19:13.661Z,15.36
2022-10-19T14:22:36.025Z,15.38
2022-10-19T14:25:38.414Z,15.24
2022-10-19T14:28:42.987Z,15.17
2022-10-19T14:31:45.696Z,15.11
2022-10-19T14:34:49.410Z,15.07
2022-10-19T14:37:51.909Z,14.80
2022-10-19T14:40:56.558Z,14.77
2022-10-19T14:44:00.582Z,14.82
2022-10-19T14:47:18.730Z,14.89
2022-10-19T14:50:26.467Z,14.90
2022-10-19T14:53:41.243Z,14.90
2022-10-19T14:56:55.829Z,14.93
2022-10-19T15:00:04.408Z,14.90
2022-10-19T15:03:13.429Z,14.90
2022-10-19T15:06:42.448Z,14.88
2022-10-19T15:09:53.308Z,14.87
2022-10-19T15:13:04.555Z,14.86
2022-10-19T15:16:07.237Z,14.78
2022-10-19T15:19:16.336Z,14.81
2022-10-19T15:22:41.811Z,14.77
2022-10-19T15:25:44.169Z,14.67
2022-10-19T15:28:47.477Z,14.67
2022-10-19T15:31:50.746Z,14.68
2022-10-19T15:34:53.168Z,14.70
2022-10-19T15:38:06.448Z,14.63
2022-10-19T15:41:21.393Z,14.55
2022-10-19T15:44:33.650Z,14.52
2022-10-19T15:47:36.266Z,14.39
2022-10-19T15:50:45.217Z,14.32
2022-10-19T15:53:47.756Z,14.26
2022-10-19T15:56:52.224Z,14.24
2022-10-19T15:59:56.320Z,14.24
2022-10-19T16:02:58.744Z,14.31
2022-10-19T16:06:01.493Z,14.29
2022-10-19T16:09:04.653Z,14.26
2022-10-19T16:12:09.090Z,14.24
2022-10-19T16:15:23.726Z,14.26
2022-10-19T16:18:26.406Z,14.18
2022-10-19T16:21:32.517Z,14.14
2022-10-19T16:24:35.319Z,14.06
2022-10-19T16:27:38.213Z,14.04
2022-10-19T16:30:40.777Z,14.00
2022-10-19T16:33:43.384Z,13.90
2022-10-19T16:36:46.293Z,13.84
2022-10-19T16:39:49.025Z,13.77
2022-10-19T16:42:51.509Z,13.65
2022-10-19T16:45:59.962Z,13.61
2022-10-19T16:49:02.953Z,13.52
2022-10-19T16:52:06.179Z,13.57
2022-10-19T16:55:09.001Z,13.50
2022-10-19T16:58:11.446Z,13.47
2022-10-19T17:01:17.267Z,13.43
2022-10-19T17:04:19.715Z,13.43
2022-10-19T17:07:22.368Z,13.39
2022-10-19T17:10:26.231Z,13.38
2022-10-19T17:13:28.770Z,13.32
2022-10-19T17:16:32.934Z,13.31
2022-10-19T17:19:37.010Z,13.27
2022-10-19T17:22:39.638Z,13.31
2022-10-19T17:25:49.078Z,13.32
2022-10-19T17:28:51.762Z,13.30
2022-10-19T17:31:54.411Z,13.22
2022-10-19T17:34:57.010Z,13.19
2022-10-19T17:37:59.680Z,13.21
2022-10-19T17:41:12.062Z,13.19
2022-10-19T17:44:17.587Z,13.15
2022-10-19T17:47:20.210Z,13.16
2022-10-19T17:50:22.970Z,13.10
2022-10-19T17:53:26.232Z,13.11
2022-10-19T17:56:29.594Z,13.10
2022-10-19T17:59:46.783Z,13.05
2022-10-19T18:02:55.254Z,13.03
2022-10-19T18:06:04.535Z,13.01
2022-10-19T18:09:09.886Z,13.03
2022-10-19T18:12:13.410Z,12.95
2022-10-19T18:15:16.159Z,13.00
2022-10-19T18:18:19.472Z,12.96
2022-10-19T18:21:25.815Z,12.86
2022-10-19T18:24:28.826Z,12.87
2022-10-19T18:27:31.585Z,12.86
2022-10-19T18:30:37.669Z,12.92
2022-10-19T18:33:41.055Z,12.88
2022-10-19T18:36:44.485Z,13.00
2022-10-19T18:39:47.464Z,12.97
2022-10-19T18:42:50.131Z,12.93
2022-10-19T18:45:54.098Z,12.86
2022-10-19T18:48:56.866Z,12.79
2022-10-19T18:51:59.593Z,12.78
2022-10-19T18:55:02.339Z,12.78
2022-10-19T18:58:05.066Z,12.68
2022-10-19T19:01:22.868Z,12.64
2022-10-19T19:04:25.634Z,12.61
2022-10-19T19:07:28.068Z,12.56
2022-10-19T19:10:30.741Z,12.56
2022-10-19T19:13:33.361Z,12.48
2022-10-19T19:16:38.013Z,12.55
2022-10-19T19:19:41.247Z,12.53
2022-10-19T19:22:43.932Z,12.60
2022-10-19T19:25:46.826Z,12.53
2022-10-19T19:28:51.573Z,12.59
2022-10-19T19:31:54.751Z,12.62
2022-10-19T19:34:57.907Z,12.55
2022-10-19T19:38:00.541Z,12.64
2022-10-19T19:41:06.743Z,12.66
2022-10-19T19:44:09.439Z,12.68
2022-10-19T19:47:12.125Z,12.67
2022-10-19T19:50:15.777Z,12.57
2022-10-19T19:53:19.904Z,12.62
2022-10-19T19:56:22.551Z,12.64
2022-10-19T19:59:25.746Z,12.58
2022-10-19T20:02:28.412Z,12.49
2022-10-19T20:05:31.932Z,12.44
2022-10-19T20:08:36.320Z,12.28
2022-10-19T20:11:42.599Z,12.12
2022-10-19T20:14:45.502Z,12.16
2022-10-19T20:17:48.185Z,12.07
2022-10-19T20:20:54.415Z,12.17
2022-10-19T20:23:57.340Z,12.10
2022-10-19T20:27:00.206Z,11.99
2022-10-19T20:30:04.820Z,11.99
2022-10-19T20:33:08.333Z,11.91
2022-10-19T20:36:15.164Z,11.71
2022-10-19T20:39:18.482Z,11.72
2022-10-19T20:42:21.694Z,11.71
2022-10-19T20:45:24.262Z,11.64
2022-10-19T20:48:26.821Z,11.49
2022-10-19T20:51:32.665Z,11.33
2022-10-19T20:54:35.894Z,11.33
2022-10-19T20:57:38.464Z,11.28
2022-10-19T21:00:42.044Z,11.22
2022-10-19T21:03:52.747Z,11.23
2022-10-19T21:06:55.402Z,11.32
2022-10-19T21:09:58.461Z,11.26
2022-10-19T21:13:00.863Z,11.28
2022-10-19T21:16:30.271Z,11.40
2022-10-19T21:19:32.697Z,11.40
2022-10-19T21:22:39.570Z,11.36
2022-10-19T21:25:52.593Z,11.32
2022-10-19T21:28:55.213Z,11.24
2022-10-19T21:31:57.654Z,11.11
2022-10-19T21:35:00.028Z,11.08
2022-10-19T21:38:02.406Z,11.00
2022-10-19T21:41:14.558Z,10.93
2022-10-19T21:44:18.146Z,10.87
2022-10-19T21:47:20.503Z,10.81
2022-10-19T21:50:24.044Z,10.80
2022-10-19T21:53:26.703Z,10.77
2022-10-19T21:56:29.331Z,10.62
2022-10-19T21:59:31.782Z,10.50
2022-10-19T22:02:34.166Z,10.44
2022-10-19T22:05:36.608Z,10.35
2022-10-19T22:08:39.900Z,10.36
2022-10-19T22:11:42.950Z,10.32
2022-10-19T22:14:45.750Z,10.39
2022-10-19T22:17:48.183Z,10.31
2022-10-19T22:20:52.999Z,10.34
2022-10-19T22:24:00.698Z,10.30
2022-10-19T22:27:03.138Z,10.14
2022-10-19T22:30:07.783Z,10.10
2022-10-19T22:33:10.128Z,10.03
2022-10-19T22:36:13.490Z,10.08
2022-10-19T22:39:16.693Z,10.05
2022-10-19T22:42:19.092Z,9.99
2022-10-19T22:45:21.484Z,9.84
2022-10-19T22:48:24.071Z,9.70
2022-10-19T22:51:27.151Z,9.71
2022-10-19T22:54:29.505Z,9.89
2022-10-19T22:57:31.914Z,9.87
2022-10-19T23:00:34.710Z,9.81
2022-10-19T23:03:40.468Z,9.89
2022-10-19T23:06:42.915Z,10.00
2022-10-19T23:09:45.354Z,9.89
2022-10-19T23:12:52.483Z,9.87
2022-10-19T23:15:54.966Z,9.86
2022-10-19T23:18:57.340Z,9.81
2022-10-19T23:21:59.777Z,9.83
2022-10-19T23:25:02.166Z,9.78
2022-10-19T23:28:04.728Z,9.71
2022-10-19T23:31:19.187Z,9.65
2022-10-19T23:34:21.601Z,9.49
2022-10-19T23:37:24.006Z,9.18
2022-10-19T23:40:29.084Z,9.00
2022-10-19T23:43:31.755Z,8.78
2022-10-19T23:46:34.154Z,8.58
2022-10-19T23:49:36.664Z,8.37
2022-10-19T23:52:39.090Z,8.18
2022-10-19T23:55:41.444Z,8.00
2022-10-19T23:58:44.198Z,7.84
